createdAt,value
2023-04-29T00:01:14.388Z,100376.56
2023-04-29T00:04:16.544Z,100363.53
2023-04-29T00:07:18.622Z,100335.94
2023-04-29T00:10:20.475Z,100378.34
2023-04-29T00:13:22.468Z,100377.56
2023-04-29T00:16:30.080Z,100372.34
2023-04-29T00:19:31.915Z,100374.09
2023-04-29T00:22:33.758Z,100368.88
2023-04-29T00:25:36.155Z,100347.19
2023-04-29T00:28:37.964Z,100363.69
2023-04-29T00:31:39.901Z,100374.91
2023-04-29T00:34:42.723Z,100320.28
2023-04-29T00:37:44.691Z,100367.88
2023-04-29T00:40:46.913Z,100354.97
2023-04-29T00:43:48.706Z,100360.06
2023-04-29T00:46:50.643Z,100358.38
2023-04-29T00:49:52.907Z,100358.34
2023-04-29T00:52:55.062Z,100363.53
2023-04-29T00:55:57.182Z,100330.69
2023-04-29T00:59:00.482Z,100374.13
2023-04-29T01:02:04.244Z,100377.66
2023-04-29T01:05:06.551Z,100372.44
2023-04-29T01:08:27.573Z,100359.50
2023-04-29T01:11:55.003Z,100349.91
2023-04-29T01:15:17.211Z,100371.63
2023-04-29T01:18:30.481Z,100380.44
2023-04-29T01:21:32.637Z,100358.88
2023-04-29T01:24:34.436Z,100351.13
2023-04-29T01:28:02.854Z,100376.31
2023-04-29T01:31:28.436Z,100377.28
2023-04-29T01:34:50.242Z,100365.13
2023-04-29T01:38:16.290Z,100367.69
2023-04-29T01:41:42.566Z,100327.84
2023-04-29T01:44:51.602Z,100362.50
2023-04-29T01:47:58.071Z,100369.47
2023-04-29T01:51:01.553Z,100368.56
2023-04-29T01:54:05.282Z,100359.06
2023-04-29T01:57:07.085Z,100376.50
2023-04-29T02:00:27.338Z,100366.13
2023-04-29T02:03:29.464Z,100327.84
2023-04-29T02:06:32.341Z,100374.66
2023-04-29T02:09:37.416Z,100361.66
2023-04-29T02:12:44.668Z,100360.72
2023-04-29T02:15:46.996Z,100367.75
2023-04-29T02:18:49.177Z,100359.13
2023-04-29T02:21:51.084Z,100363.47
2023-04-29T02:24:53.176Z,100368.63
2023-04-29T02:27:54.966Z,100363.44
2023-04-29T02:30:57.090Z,100352.16
2023-04-29T02:33:58.954Z,100315.75
2023-04-29T02:37:00.804Z,100355.66
2023-04-29T02:40:03.619Z,100354.78
2023-04-29T02:43:05.908Z,100353.88
2023-04-29T02:46:07.804Z,100312.22
2023-04-29T02:49:12.294Z,100341.72
2023-04-29T02:52:14.582Z,100350.41
2023-04-29T02:55:17.477Z,100334.84
2023-04-29T02:58:19.327Z,100339.16
2023-04-29T03:01:22.043Z,100335.72
2023-04-29T03:04:24.777Z,100341.81
2023-04-29T03:07:28.020Z,100355.69
2023-04-29T03:10:29.916Z,100353.97
2023-04-29T03:13:31.802Z,100352.19
2023-04-29T03:16:33.725Z,100355.63
2023-04-29T03:19:37.337Z,100358.25
2023-04-29T03:22:39.172Z,100355.59
2023-04-29T03:25:41.717Z,100346.91
2023-04-29T03:28:43.575Z,100360.78
2023-04-29T03:31:45.783Z,100359.03
2023-04-29T03:34:49.497Z,100355.56
2023-04-29T03:38:00.359Z,100353.00
2023-04-29T03:41:05.924Z,100358.22
2023-04-29T03:44:07.944Z,100333.06
2023-04-29T03:47:09.853Z,100346.03
2023-04-29T03:50:12.074Z,100348.59
2023-04-29T03:53:15.343Z,100356.59
2023-04-29T03:56:17.544Z,100360.06
2023-04-29T03:59:19.933Z,100357.41
2023-04-29T04:02:23.594Z,100361.69
2023-04-29T04:05:26.269Z,100360.78
2023-04-29T04:08:33.707Z,100371.16
2023-04-29T04:11:51.160Z,100358.03
2023-04-29T04:14:54.148Z,100348.47
2023-04-29T04:17:56.448Z,100351.03
2023-04-29T04:20:58.361Z,100360.56
2023-04-29T04:24:01.560Z,100355.31
2023-04-29T04:27:05.161Z,100337.06
2023-04-29T04:30:12.229Z,100344.94
2023-04-29T04:33:14.025Z,100354.41
2023-04-29T04:36:20.747Z,100350.94
2023-04-29T04:39:22.839Z,100334.31
2023-04-29T04:42:25.919Z,100326.53
2023-04-29T04:45:31.610Z,100349.91
2023-04-29T04:48:34.703Z,100342.00
2023-04-29T04:51:36.825Z,100341.03
2023-04-29T04:54:38.649Z,100354.75
2023-04-29T04:57:48.247Z,100349.19
2023-04-29T05:00:52.164Z,100361.63
2023-04-29T05:03:55.497Z,100347.09
2023-04-29T05:06:57.401Z,100355.63
2023-04-29T05:10:03.692Z,100280.38
2023-04-29T05:13:07.632Z,100364.16
2023-04-29T05:16:09.979Z,100365.09
2023-04-29T05:19:15.386Z,100363.19
2023-04-29T05:22:17.467Z,100361.44
2023-04-29T05:25:19.528Z,100365.00
2023-04-29T05:28:22.156Z,100363.31
2023-04-29T05:31:24.118Z,100352.78
2023-04-29T05:34:26.485Z,100323.28
2023-04-29T05:37:30.979Z,100352.50
2023-04-29T05:40:58.966Z,100375.84
2023-04-29T05:44:00.768Z,100373.91
2023-04-29T05:47:02.647Z,100377.25
2023-04-29T05:50:05.777Z,100366.75
2023-04-29T05:53:07.879Z,100370.31
2023-04-29T05:56:09.839Z,100371.19
2023-04-29T05:59:12.355Z,100356.25
2023-04-29T06:02:14.795Z,100372.28
2023-04-29T06:05:20.064Z,100332.97
2023-04-29T06:08:42.338Z,100346.50
2023-04-29T06:11:54.979Z,100285.72
2023-04-29T06:14:57.310Z,100363.34
2023-04-29T06:17:59.297Z,100348.28
2023-04-29T06:21:01.274Z,100364.59
2023-04-29T06:24:03.249Z,100315.84
2023-04-29T06:27:06.005Z,100353.88
2023-04-29T06:30:08.631Z,100353.22
2023-04-29T06:33:10.970Z,100350.72
2023-04-29T06:36:13.009Z,100352.22
2023-04-29T06:39:50.519Z,100351.06
2023-04-29T06:43:02.355Z,100333.88
2023-04-29T06:46:20.482Z,100345.09
2023-04-29T06:49:31.137Z,100318.16
2023-04-29T06:52:34.587Z,100340.41
2023-04-29T06:55:36.396Z,100337.88
2023-04-29T06:58:38.568Z,100314.75
2023-04-29T07:01:44.459Z,100340.19
2023-04-29T07:04:47.152Z,100337.88
2023-04-29T07:07:50.930Z,100346.31
2023-04-29T07:10:57.922Z,100338.00
2023-04-29T07:13:59.638Z,100353.16
2023-04-29T07:17:05.311Z,100338.81
2023-04-29T07:20:09.322Z,100353.13
2023-04-29T07:23:11.337Z,100352.28
2023-04-29T07:26:15.750Z,100335.81
2023-04-29T07:29:19.412Z,100354.56
2023-04-29T07:32:21.526Z,100344.38
2023-04-29T07:35:24.361Z,100339.56
2023-04-29T07:38:26.375Z,100309.03
2023-04-29T07:41:28.748Z,100324.94
2023-04-29T07:44:30.567Z,100340.22
2023-04-29T07:47:32.440Z,100324.25
2023-04-29T07:50:37.564Z,100299.19
2023-04-29T07:53:39.419Z,100323.66
2023-04-29T07:56:41.262Z,100330.28
2023-04-29T07:59:43.033Z,100304.97
2023-04-29T08:02:46.557Z,100293.50
2023-04-29T08:05:53.784Z,100345.88
2023-04-29T08:08:56.604Z,100345.25
2023-04-29T08:11:58.776Z,100348.13
2023-04-29T08:15:00.577Z,100329.34
2023-04-29T08:18:02.446Z,100345.50
2023-04-29T08:21:04.568Z,100333.88
2023-04-29T08:24:06.436Z,100331.84
2023-04-29T08:27:08.582Z,100351.50
2023-04-29T08:30:10.795Z,100326.56
2023-04-29T08:33:13.140Z,100342.41
2023-04-29T08:36:15.507Z,100340.13
2023-04-29T08:39:18.346Z,100343.03
2023-04-29T08:42:36.917Z,100322.53
2023-04-29T08:45:40.056Z,100338.34
2023-04-29T08:48:45.018Z,100336.56
2023-04-29T08:51:53.082Z,100344.19
2023-04-29T08:54:54.994Z,100337.84
2023-04-29T08:57:57.610Z,100342.59
2023-04-29T09:00:59.424Z,100340.63
2023-04-29T09:04:36.749Z,100344.00
2023-04-29T09:07:39.915Z,100340.19
2023-04-29T09:10:43.179Z,100324.97
2023-04-29T09:13:44.970Z,100321.72
2023-04-29T09:16:47.402Z,100337.19
2023-04-29T09:19:49.309Z,100342.19
2023-04-29T09:22:52.254Z,100344.31
2023-04-29T09:25:57.680Z,100338.00
2023-04-29T09:29:18.505Z,100335.66
2023-04-29T09:32:21.545Z,100337.94
2023-04-29T09:35:28.139Z,100335.03
2023-04-29T09:38:29.987Z,100320.91
2023-04-29T09:41:32.333Z,100327.69
2023-04-29T09:44:37.959Z,100340.59
2023-04-29T09:47:39.804Z,100284.75
2023-04-29T09:50:43.973Z,100335.28
2023-04-29T09:53:45.932Z,100317.69
2023-04-29T09:56:52.493Z,100320.94
2023-04-29T09:59:54.210Z,100313.75
2023-04-29T10:02:59.331Z,100324.13
2023-04-29T10:06:02.821Z,100316.09
2023-04-29T10:09:07.383Z,100314.38
2023-04-29T10:12:09.511Z,100309.16
2023-04-29T10:15:20.341Z,100309.38
2023-04-29T10:18:30.542Z,100285.25
2023-04-29T10:21:32.566Z,100300.75
2023-04-29T10:24:37.818Z,100302.19
2023-04-29T10:27:43.081Z,100292.16
2023-04-29T10:30:45.726Z,100293.78
2023-04-29T10:33:48.358Z,100273.56
2023-04-29T10:36:50.847Z,100297.94
2023-04-29T10:40:16.592Z,100282.66
2023-04-29T10:43:26.920Z,100278.78
2023-04-29T10:46:28.842Z,100275.06
2023-04-29T10:49:36.915Z,100238.47
2023-04-29T10:52:55.938Z,100251.06
2023-04-29T10:56:00.166Z,100268.50
2023-04-29T10:59:01.916Z,100237.72
2023-04-29T11:02:03.713Z,100256.84
2023-04-29T11:05:10.591Z,100256.41
2023-04-29T11:08:13.832Z,100236.59
2023-04-29T11:11:15.975Z,100243.28
2023-04-29T11:14:24.090Z,100251.22
2023-04-29T11:17:27.157Z,100222.44
2023-04-29T11:20:30.217Z,100235.91
2023-04-29T11:23:45.577Z,100238.16
2023-04-29T11:26:48.975Z,100233.88
2023-04-29T11:29:52.450Z,100233.09
2023-04-29T11:32:54.510Z,100228.53
2023-04-29T11:35:57.041Z,100226.09
2023-04-29T11:39:01.310Z,100223.78
2023-04-29T11:42:06.948Z,100216.38
2023-04-29T11:45:09.276Z,100212.66
2023-04-29T11:48:21.729Z,100216.28
2023-04-29T11:51:23.637Z,100208.38
2023-04-29T11:54:27.105Z,100199.50
2023-04-29T11:57:29.126Z,100180.16
2023-04-29T12:00:31.608Z,100195.09
2023-04-29T12:03:34.181Z,100211.50
2023-04-29T12:06:37.005Z,100198.66
2023-04-29T12:09:43.839Z,100196.06
2023-04-29T12:12:46.611Z,100138.38
2023-04-29T12:15:50.511Z,100189.81
2023-04-29T12:18:53.516Z,100189.22
2023-04-29T12:21:59.348Z,100192.44
2023-04-29T12:25:04.282Z,100186.56
2023-04-29T12:28:08.366Z,100185.69
2023-04-29T12:31:13.655Z,100188.75
2023-04-29T12:34:15.467Z,100177.72
2023-04-29T12:37:17.897Z,100185.38
2023-04-29T12:40:21.052Z,100181.00
2023-04-29T12:43:30.550Z,100179.41
2023-04-29T12:46:38.398Z,100175.03
2023-04-29T12:49:45.451Z,100178.63
2023-04-29T12:52:47.222Z,100155.91
2023-04-29T12:55:49.083Z,100154.03
2023-04-29T12:58:50.876Z,100158.38
2023-04-29T13:01:54.701Z,100161.81
2023-04-29T13:04:56.694Z,100146.28
2023-04-29T13:07:58.871Z,100137.78
2023-04-29T13:11:00.773Z,100139.97
2023-04-29T13:14:02.583Z,100133.63
2023-04-29T13:17:04.686Z,100135.72
2023-04-29T13:20:10.640Z,100127.13
2023-04-29T13:23:13.050Z,100134.84
2023-04-29T13:26:14.880Z,100134.16
2023-04-29T13:29:16.880Z,100126.56
2023-04-29T13:32:19.125Z,100097.13
2023-04-29T13:35:21.106Z,100107.41
2023-04-29T13:38:23.073Z,100123.38
2023-04-29T13:41:26.589Z,100120.81
2023-04-29T13:44:36.005Z,100113.94
2023-04-29T13:48:06.663Z,100108.31
2023-04-29T14:00:55.152Z,100107.03
2023-04-29T14:03:47.895Z,100096.91
2023-04-29T14:06:50.042Z,100106.63
2023-04-29T14:09:51.958Z,100096.75
2023-04-29T14:12:53.715Z,100105.91
2023-04-29T14:15:56.706Z,100081.38
2023-04-29T14:18:59.690Z,100093.78
2023-04-29T14:22:03.040Z,100088.19
2023-04-29T14:25:08.309Z,100084.63
2023-04-29T14:28:11.587Z,99997.63
2023-04-29T14:31:14.012Z,100080.91
2023-04-29T14:34:16.003Z,100035.56
2023-04-29T14:37:17.879Z,100071.53
2023-04-29T14:40:20.005Z,100068.88
2023-04-29T14:43:22.080Z,100070.19
2023-04-29T14:46:24.993Z,100035.38
2023-04-29T14:49:27.444Z,100066.19
2023-04-29T14:52:30.654Z,100065.22
2023-04-29T14:55:32.436Z,100065.91
2023-04-29T14:58:34.348Z,100072.75
2023-04-29T15:01:36.660Z,100071.69
2023-04-29T15:04:39.886Z,100063.69
2023-04-29T15:07:42.316Z,100072.72
2023-04-29T15:10:47.945Z,100068.97
2023-04-29T15:13:50.733Z,100054.97
2023-04-29T15:16:52.550Z,100069.00
2023-04-29T15:19:54.368Z,100069.56
2023-04-29T15:22:56.235Z,100066.69
2023-04-29T15:25:58.088Z,100068.03
2023-04-29T15:28:59.871Z,100052.81
2023-04-29T15:32:01.823Z,100061.38
2023-04-29T15:35:04.825Z,100051.59
2023-04-29T15:38:07.968Z,100044.53
2023-04-29T15:41:10.078Z,100053.84
2023-04-29T15:44:12.023Z,100032.41
2023-04-29T15:47:14.916Z,100024.63
2023-04-29T15:50:16.668Z,100028.72
2023-04-29T15:53:18.441Z,100020.03
2023-04-29T15:56:21.034Z,100048.50
2023-04-29T15:59:22.886Z,100027.56
2023-04-29T16:02:24.778Z,99986.47
2023-04-29T16:05:26.915Z,100020.53
2023-04-29T16:08:28.761Z,100037.47
2023-04-29T16:11:31.962Z,100027.00
2023-04-29T16:14:33.887Z,100026.63
2023-04-29T16:17:35.682Z,100027.56
2023-04-29T16:20:37.469Z,100034.59
2023-04-29T16:23:39.248Z,100039.00
2023-04-29T16:26:41.505Z,100047.16
2023-04-29T16:29:43.397Z,100024.91
2023-04-29T16:32:45.140Z,100036.31
2023-04-29T16:35:47.034Z,100046.00
2023-04-29T16:38:49.236Z,100044.66
2023-04-29T16:41:51.591Z,100038.94
2023-04-29T16:44:53.398Z,100024.03
2023-04-29T16:47:55.322Z,100027.22
2023-04-29T16:50:58.429Z,100042.91
2023-04-29T16:54:00.286Z,100024.75
2023-04-29T16:57:02.512Z,100017.53
2023-04-29T17:00:04.829Z,100034.09
2023-04-29T17:03:06.777Z,100017.22
2023-04-29T17:06:09.274Z,100029.72
2023-04-29T17:09:11.537Z,100031.81
2023-04-29T17:12:13.612Z,100040.13
2023-04-29T17:15:16.012Z,100047.59
2023-04-29T17:18:19.949Z,100056.31
2023-04-29T17:21:24.856Z,100048.91
2023-04-29T17:24:26.684Z,100025.34
2023-04-29T17:27:28.459Z,100043.19
2023-04-29T17:30:30.225Z,100043.53
2023-04-29T17:33:35.588Z,100048.16
2023-04-29T17:36:37.461Z,100034.72
2023-04-29T17:39:39.442Z,100056.50
2023-04-29T17:42:41.663Z,100041.72
2023-04-29T17:45:43.607Z,100049.59
2023-04-29T17:48:45.436Z,100033.03
2023-04-29T17:51:47.332Z,100043.19
2023-04-29T17:54:49.122Z,100033.69
2023-04-29T17:57:51.088Z,100041.63
2023-04-29T18:00:53.074Z,100064.41
2023-04-29T18:03:54.895Z,99978.22
2023-04-29T18:06:56.705Z,100051.03
2023-04-29T18:09:58.656Z,100071.81
2023-04-29T18:13:00.690Z,100051.16
2023-04-29T18:16:02.441Z,100063.00
2023-04-29T18:19:04.685Z,100069.38
2023-04-29T18:22:07.480Z,100060.56
2023-04-29T18:25:11.159Z,100066.28
2023-04-29T18:28:23.474Z,100070.97
2023-04-29T18:31:26.604Z,100059.81
2023-04-29T18:34:28.466Z,100067.69
2023-04-29T18:37:30.985Z,100056.09
2023-04-29T18:40:32.794Z,100053.53
2023-04-29T18:43:34.935Z,100077.69
2023-04-29T18:46:36.826Z,100076.00
2023-04-29T18:49:38.761Z,100065.84
2023-04-29T18:52:41.010Z,100041.31
2023-04-29T18:55:42.805Z,100077.78
2023-04-29T18:58:44.618Z,100079.19
2023-04-29T19:01:47.680Z,100070.03
2023-04-29T19:04:50.389Z,100073.69
2023-04-29T19:07:52.212Z,100091.34
2023-04-29T19:10:54.137Z,100047.06
2023-04-29T19:13:56.179Z,100080.84
2023-04-29T19:16:57.969Z,100088.97
2023-04-29T19:20:00.168Z,100089.97
2023-04-29T19:23:02.750Z,100093.66
2023-04-29T19:26:04.610Z,100085.00
2023-04-29T19:29:07.294Z,100079.78
2023-04-29T19:32:09.147Z,100074.47
2023-04-29T19:35:12.304Z,100059.88
2023-04-29T19:38:14.762Z,100066.78
2023-04-29T19:41:16.803Z,100077.06
2023-04-29T19:44:18.627Z,100091.97
2023-04-29T19:47:20.401Z,100089.84
2023-04-29T19:50:22.723Z,100029.00
2023-04-29T19:53:24.758Z,100090.38
2023-04-29T19:56:27.039Z,100062.69
2023-04-29T19:59:30.263Z,100088.13
2023-04-29T20:02:33.028Z,100073.91
2023-04-29T20:05:35.158Z,100083.66
2023-04-29T20:08:37.368Z,100085.97
2023-04-29T20:11:39.228Z,100068.53
2023-04-29T20:14:41.311Z,100090.44
2023-04-29T20:17:43.148Z,100092.56
2023-04-29T20:20:45.498Z,100099.69
2023-04-29T20:23:47.210Z,100076.66
2023-04-29T20:26:48.988Z,100102.00
2023-04-29T20:29:51.131Z,100045.22
2023-04-29T20:32:53.119Z,100070.50
2023-04-29T20:35:54.977Z,100100.72
2023-04-29T20:38:57.324Z,100064.44
2023-04-29T20:41:59.187Z,100086.25
2023-04-29T20:45:31.418Z,100076.97
2023-04-29T20:48:36.668Z,100087.38
2023-04-29T20:51:39.481Z,100084.34
2023-04-29T20:54:41.736Z,100068.81
2023-04-29T20:57:43.614Z,100089.66
2023-04-29T21:00:45.920Z,100084.06
2023-04-29T21:03:47.646Z,100097.03
2023-04-29T21:06:52.569Z,100087.66
2023-04-29T21:09:54.759Z,100093.66
2023-04-29T21:12:56.716Z,100092.13
2023-04-29T21:15:58.607Z,100075.09
2023-04-29T21:19:00.473Z,100089.88
2023-04-29T21:22:02.299Z,100098.69
2023-04-29T21:25:05.524Z,100098.19
2023-04-29T21:28:07.341Z,100048.50
2023-04-29T21:31:15.280Z,100083.88
2023-04-29T21:34:17.071Z,100099.44
2023-04-29T21:37:18.825Z,100088.47
2023-04-29T21:40:20.683Z,100091.28
2023-04-29T21:43:22.657Z,100054.41
2023-04-29T21:46:28.286Z,100096.59
2023-04-29T21:49:30.817Z,100083.13
2023-04-29T21:52:35.202Z,100103.28
2023-04-29T21:55:38.102Z,100117.38
2023-04-29T21:58:41.006Z,100096.78
2023-04-29T22:01:44.572Z,100091.00
2023-04-29T22:04:46.508Z,100099.91
2023-04-29T22:07:48.321Z,100111.50
2023-04-29T22:10:50.497Z,100115.84
2023-04-29T22:13:52.407Z,100071.97
2023-04-29T22:16:54.227Z,100107.59
2023-04-29T22:19:56.238Z,100111.19
2023-04-29T22:22:58.190Z,100108.00
2023-04-29T22:26:00.001Z,100115.91
2023-04-29T22:29:01.849Z,100093.44
2023-04-29T22:32:04.002Z,100083.88
2023-04-29T22:35:06.419Z,100102.13
2023-04-29T22:38:08.265Z,100098.03
2023-04-29T22:41:11.712Z,100103.47
2023-04-29T22:44:13.887Z,100075.94
2023-04-29T22:47:16.089Z,100099.31
2023-04-29T22:50:17.860Z,100054.34
2023-04-29T22:53:21.268Z,100064.84
2023-04-29T22:56:24.586Z,100073.56
2023-04-29T22:59:26.452Z,100099.59
2023-04-29T23:02:29.709Z,100085.66
2023-04-29T23:05:32.463Z,100088.19
2023-04-29T23:08:34.285Z,100085.59
2023-04-29T23:11:37.422Z,100089.06
2023-04-29T23:14:39.229Z,100073.47
2023-04-29T23:17:41.203Z,100071.75
2023-04-29T23:20:47.259Z,100073.53
2023-04-29T23:23:49.144Z,100078.59
2023-04-29T23:26:51.131Z,100075.13
2023-04-29T23:29:53.126Z,100067.41
2023-04-29T23:32:55.200Z,100068.31
2023-04-29T23:35:57.270Z,100074.25
2023-04-29T23:38:59.336Z,100056.84
2023-04-29T23:42:01.149Z,100051.00
2023-04-29T23:45:03.071Z,100077.91
2023-04-29T23:48:04.953Z,100064.19
2023-04-29T23:51:06.928Z,100066.84
2023-04-29T23:54:08.849Z,100065.16
2023-04-29T23:57:10.848Z,100058.16
